KDPG/DPG METAR and TAF weather

Enter ICAO airport designator
Station Type Date Time Source
KDPG METAR 2020/04/09 18:55 UTC NOAA

KDPG 091855Z 18002KT 40SM -RA SCT045 BKN060 BKN100 12/05 A3005 RMK SLP145 P0001 T01230049


Station Type Date Time Source
KDPG Decoded METAR 2020/04/09 18:55 UTC NOAA

Dugway Proving Grounds, UT, United States (KDPG) 40-10N 112-56W 1325M
Apr 09, 2020 - 02:55 PM EDT / 2020.04.09 1855 UTC
Wind: from the S (180 degrees) at 2 MPH (2 KT):0
Visibility: 40 mile(s):0
Sky conditions: mostly cloudy
Weather: light rain
Precipitation last hour: 0.01 inches
Temperature: 54.1 F (12.3 C)
Dew Point: 40.8 F (4.9 C)
Relative Humidity: 60%
Pressure (altimeter): 30.05 in. Hg (1017 hPa)
ob: KDPG 091855Z 18002KT 40SM -RA SCT045 BKN060 BKN100 12/05 A3005 RMK SLP145 P0001 T01230049
cycle: 19

Station Type Date Time Source
KDPG TAF UTC NOAA

Error!

Example: see airport list